sensor_id;sensor_type;location;lat;lon;timestamp;temperature;humidity
46900;DHT22;32647;49.382;7.078;2022-12-10T00:01:59;0.20;99.90
46900;DHT22;32647;49.382;7.078;2022-12-10T00:04:45;0.20;99.90
46900;DHT22;32647;49.382;7.078;2022-12-10T00:07:31;0.20;99.90
46900;DHT22;32647;49.382;7.078;2022-12-10T00:10:17;0.20;99.90
46900;DHT22;32647;49.382;7.078;2022-12-10T00:13:03;0.20;99.90
46900;DHT22;32647;49.382;7.078;2022-12-10T00:15:49;0.20;99.90
46900;DHT22;32647;49.382;7.078;2022-12-10T00:18:35;0.20;99.90
46900;DHT22;32647;49.382;7.078;2022-12-10T00:21:27;0.20;99.90
46900;DHT22;32647;49.382;7.078;2022-12-10T00:24:13;0.20;99.90
46900;DHT22;32647;49.382;7.078;2022-12-10T00:26:59;0.20;99.90
46900;DHT22;32647;49.382;7.078;2022-12-10T00:29:45;0.20;99.90
46900;DHT22;32647;49.382;7.078;2022-12-10T00:32:31;0.20;99.90
46900;DHT22;32647;49.382;7.078;2022-12-10T00:35:17;0.20;99.90
46900;DHT22;32647;49.382;7.078;2022-12-10T00:38:03;0.20;99.90
46900;DHT22;32647;49.382;7.078;2022-12-10T00:40:49;0.20;99.90
46900;DHT22;32647;49.382;7.078;2022-12-10T00:43:36;0.20;99.90
46900;DHT22;32647;49.382;7.078;2022-12-10T00:46:22;0.20;99.90
46900;DHT22;32647;49.382;7.078;2022-12-10T00:49:09;0.20;99.90
46900;DHT22;32647;49.382;7.078;2022-12-10T00:51:55;0.20;99.90
46900;DHT22;32647;49.382;7.078;2022-12-10T00:54:40;0.20;99.90
46900;DHT22;32647;49.382;7.078;2022-12-10T00:57:26;0.30;99.90
46900;DHT22;32647;49.382;7.078;2022-12-10T01:00:13;0.20;99.90
46900;DHT22;32647;49.382;7.078;2022-12-10T01:02:59;0.20;99.90
46900;DHT22;32647;49.382;7.078;2022-12-10T01:05:45;0.20;99.90
46900;DHT22;32647;49.382;7.078;2022-12-10T01:08:31;0.20;99.90
46900;DHT22;32647;49.382;7.078;2022-12-10T01:11:19;0.20;99.90
46900;DHT22;32647;49.382;7.078;2022-12-10T01:14:09;0.20;99.90
46900;DHT22;32647;49.382;7.078;2022-12-10T01:16:57;0.20;99.90
46900;DHT22;32647;49.382;7.078;2022-12-10T01:19:44;0.20;99.90
46900;DHT22;32647;49.382;7.078;2022-12-10T01:22:29;0.20;99.90
46900;DHT22;32647;49.382;7.078;2022-12-10T01:25:15;0.20;99.90
46900;DHT22;32647;49.382;7.078;2022-12-10T01:28:01;0.20;99.90
46900;DHT22;32647;49.382;7.078;2022-12-10T01:30:47;0.20;99.90
46900;DHT22;32647;49.382;7.078;2022-12-10T01:33:35;0.20;99.90
46900;DHT22;32647;49.382;7.078;2022-12-10T01:36:30;0.20;99.90
46900;DHT22;32647;49.382;7.078;2022-12-10T01:39:16;0.30;99.90
46900;DHT22;32647;49.382;7.078;2022-12-10T01:42:03;0.30;99.90
46900;DHT22;32647;49.382;7.078;2022-12-10T01:47:34;0.20;99.90
46900;DHT22;32647;49.382;7.078;2022-12-10T01:50:21;0.30;99.90
46900;DHT22;32647;49.382;7.078;2022-12-10T01:53:07;0.30;99.90
46900;DHT22;32647;49.382;7.078;2022-12-10T01:55:53;0.30;99.90
46900;DHT22;32647;49.382;7.078;2022-12-10T01:58:39;0.30;99.90
46900;DHT22;32647;49.382;7.078;2022-12-10T02:04:54;0.30;99.90
46900;DHT22;32647;49.382;7.078;2022-12-10T02:13:45;0.30;99.90
46900;DHT22;32647;49.382;7.078;2022-12-10T02:16:40;0.30;99.90
46900;DHT22;32647;49.382;7.078;2022-12-10T02:19:56;0.30;99.90
46900;DHT22;32647;49.382;7.078;2022-12-10T02:22:50;0.30;99.90
46900;DHT22;32647;49.382;7.078;2022-12-10T02:25:45;0.20;99.90
46900;DHT22;32647;49.382;7.078;2022-12-10T02:31:29;0.30;99.90
46900;DHT22;32647;49.382;7.078;2022-12-10T02:34:18;0.30;99.90
46900;DHT22;32647;49.382;7.078;2022-12-10T02:37:11;0.40;99.90
46900;DHT22;32647;49.382;7.078;2022-12-10T02:40:02;0.40;99.90
46900;DHT22;32647;49.382;7.078;2022-12-10T02:42:51;0.30;99.90
46900;DHT22;32647;49.382;7.078;2022-12-10T02:45:37;0.30;99.90
46900;DHT22;32647;49.382;7.078;2022-12-10T02:48:24;0.30;99.90
46900;DHT22;32647;49.382;7.078;2022-12-10T02:51:10;0.30;99.90
46900;DHT22;32647;49.382;7.078;2022-12-10T02:54:05;0.30;99.90
46900;DHT22;32647;49.382;7.078;2022-12-10T02:56:59;0.30;99.90
46900;DHT22;32647;49.382;7.078;2022-12-10T03:06:07;0.20;99.90
46900;DHT22;32647;49.382;7.078;2022-12-10T03:09:05;0.20;99.90
46900;DHT22;32647;49.382;7.078;2022-12-10T03:11:59;0.30;99.90
46900;DHT22;32647;49.382;7.078;2022-12-10T03:14:48;0.30;99.90
46900;DHT22;32647;49.382;7.078;2022-12-10T03:17:34;0.30;99.90
46900;DHT22;32647;49.382;7.078;2022-12-10T03:20:23;0.30;99.90
46900;DHT22;32647;49.382;7.078;2022-12-10T03:23:14;0.30;99.90
46900;DHT22;32647;49.382;7.078;2022-12-10T03:26:02;0.20;99.90
46900;DHT22;32647;49.382;7.078;2022-12-10T03:28:54;0.20;99.90
46900;DHT22;32647;49.382;7.078;2022-12-10T03:31:42;0.30;99.90
46900;DHT22;32647;49.382;7.078;2022-12-10T03:34:28;0.30;99.90
46900;DHT22;32647;49.382;7.078;2022-12-10T03:37:15;0.30;99.90
46900;DHT22;32647;49.382;7.078;2022-12-10T03:40:01;0.20;99.90
46900;DHT22;32647;49.382;7.078;2022-12-10T03:42:48;0.20;99.90
46900;DHT22;32647;49.382;7.078;2022-12-10T03:45:34;0.30;99.90
46900;DHT22;32647;49.382;7.078;2022-12-10T03:48:20;0.20;99.90
46900;DHT22;32647;49.382;7.078;2022-12-10T03:51:06;0.20;99.90
46900;DHT22;32647;49.382;7.078;2022-12-10T03:53:52;0.20;99.90
46900;DHT22;32647;49.382;7.078;2022-12-10T03:56:37;0.20;99.90
46900;DHT22;32647;49.382;7.078;2022-12-10T03:59:23;0.20;99.90
46900;DHT22;32647;49.382;7.078;2022-12-10T04:02:09;0.10;99.90
46900;DHT22;32647;49.382;7.078;2022-12-10T04:04:56;0.10;99.90
46900;DHT22;32647;49.382;7.078;2022-12-10T04:07:42;0.10;99.90
46900;DHT22;32647;49.382;7.078;2022-12-10T04:10:28;0.10;99.90
46900;DHT22;32647;49.382;7.078;2022-12-10T04:13:14;0.10;99.90
46900;DHT22;32647;49.382;7.078;2022-12-10T04:16:18;0.10;99.90
46900;DHT22;32647;49.382;7.078;2022-12-10T04:19:15;0.30;99.90
46900;DHT22;32647;49.382;7.078;2022-12-10T04:22:02;0.30;99.90
46900;DHT22;32647;49.382;7.078;2022-12-10T04:25:14;0.30;99.90
46900;DHT22;32647;49.382;7.078;2022-12-10T04:28:19;0.20;99.90
46900;DHT22;32647;49.382;7.078;2022-12-10T04:31:04;0.30;99.90
46900;DHT22;32647;49.382;7.078;2022-12-10T04:33:50;0.20;99.90
46900;DHT22;32647;49.382;7.078;2022-12-10T04:36:36;0.10;99.90
46900;DHT22;32647;49.382;7.078;2022-12-10T04:39:22;0.30;99.90
46900;DHT22;32647;49.382;7.078;2022-12-10T04:42:09;0.30;99.90
46900;DHT22;32647;49.382;7.078;2022-12-10T04:44:55;0.20;99.90
46900;DHT22;32647;49.382;7.078;2022-12-10T04:47:41;0.30;99.90
46900;DHT22;32647;49.382;7.078;2022-12-10T04:50:27;0.30;99.90
46900;DHT22;32647;49.382;7.078;2022-12-10T04:53:13;0.30;99.90
46900;DHT22;32647;49.382;7.078;2022-12-10T04:55:58;0.20;99.90
46900;DHT22;32647;49.382;7.078;2022-12-10T04:58:46;0.30;99.90
46900;DHT22;32647;49.382;7.078;2022-12-10T05:01:32;0.20;99.90
46900;DHT22;32647;49.382;7.078;2022-12-10T05:04:19;0.30;99.90
46900;DHT22;32647;49.382;7.078;2022-12-10T05:07:05;0.30;99.90
46900;DHT22;32647;49.382;7.078;2022-12-10T05:09:51;0.30;99.90
46900;DHT22;32647;49.382;7.078;2022-12-10T05:12:37;0.30;99.90
46900;DHT22;32647;49.382;7.078;2022-12-10T05:15:22;0.30;99.90
46900;DHT22;32647;49.382;7.078;2022-12-10T05:18:08;0.30;99.90
46900;DHT22;32647;49.382;7.078;2022-12-10T05:20:54;0.30;99.90
46900;DHT22;32647;49.382;7.078;2022-12-10T05:23:45;0.30;99.90
46900;DHT22;32647;49.382;7.078;2022-12-10T05:26:31;0.30;99.90
46900;DHT22;32647;49.382;7.078;2022-12-10T05:29:17;0.20;99.90
46900;DHT22;32647;49.382;7.078;2022-12-10T05:32:04;0.40;99.90
46900;DHT22;32647;49.382;7.078;2022-12-10T05:34:50;0.30;99.90
46900;DHT22;32647;49.382;7.078;2022-12-10T05:37:36;0.30;99.90
46900;DHT22;32647;49.382;7.078;2022-12-10T05:40:22;0.30;99.90
46900;DHT22;32647;49.382;7.078;2022-12-10T05:43:08;0.30;99.90
46900;DHT22;32647;49.382;7.078;2022-12-10T05:45:54;0.20;99.90
46900;DHT22;32647;49.382;7.078;2022-12-10T05:48:44;0.20;99.90
46900;DHT22;32647;49.382;7.078;2022-12-10T05:51:32;0.30;99.90
46900;DHT22;32647;49.382;7.078;2022-12-10T05:54:18;0.20;99.90
46900;DHT22;32647;49.382;7.078;2022-12-10T05:57:04;0.20;99.90
46900;DHT22;32647;49.382;7.078;2022-12-10T05:59:50;0.20;99.90
46900;DHT22;32647;49.382;7.078;2022-12-10T06:02:36;0.20;99.90
46900;DHT22;32647;49.382;7.078;2022-12-10T06:05:22;0.20;99.90
46900;DHT22;32647;49.382;7.078;2022-12-10T06:08:08;0.30;99.90
46900;DHT22;32647;49.382;7.078;2022-12-10T06:10:54;0.30;99.90
46900;DHT22;32647;49.382;7.078;2022-12-10T06:13:41;0.20;99.90
46900;DHT22;32647;49.382;7.078;2022-12-10T06:16:28;0.20;99.90
46900;DHT22;32647;49.382;7.078;2022-12-10T06:19:14;0.10;99.90
46900;DHT22;32647;49.382;7.078;2022-12-10T06:22:00;0.10;99.90
46900;DHT22;32647;49.382;7.078;2022-12-10T06:24:46;0.20;99.90
46900;DHT22;32647;49.382;7.078;2022-12-10T06:27:32;0.20;99.90
46900;DHT22;32647;49.382;7.078;2022-12-10T06:30:18;0.20;99.90
46900;DHT22;32647;49.382;7.078;2022-12-10T06:33:04;0.20;99.90
46900;DHT22;32647;49.382;7.078;2022-12-10T06:35:50;0.10;99.90
46900;DHT22;32647;49.382;7.078;2022-12-10T06:38:37;0.10;99.90
46900;DHT22;32647;49.382;7.078;2022-12-10T06:41:23;0.20;99.90
46900;DHT22;32647;49.382;7.078;2022-12-10T06:44:13;0.10;99.90
46900;DHT22;32647;49.382;7.078;2022-12-10T06:46:58;0.10;99.90
46900;DHT22;32647;49.382;7.078;2022-12-10T06:49:45;0.10;99.90
46900;DHT22;32647;49.382;7.078;2022-12-10T06:52:31;0.10;99.90
46900;DHT22;32647;49.382;7.078;2022-12-10T06:55:16;0.10;99.90
46900;DHT22;32647;49.382;7.078;2022-12-10T06:58:02;0.00;99.90
46900;DHT22;32647;49.382;7.078;2022-12-10T07:00:48;0.00;99.90
46900;DHT22;32647;49.382;7.078;2022-12-10T07:03:35;0.00;99.90
46900;DHT22;32647;49.382;7.078;2022-12-10T07:06:21;0.00;99.90
46900;DHT22;32647;49.382;7.078;2022-12-10T07:09:07;0.00;99.90
46900;DHT22;32647;49.382;7.078;2022-12-10T07:11:54;0.10;99.90
46900;DHT22;32647;49.382;7.078;2022-12-10T07:14:40;0.10;99.90
46900;DHT22;32647;49.382;7.078;2022-12-10T07:17:26;0.00;99.90
46900;DHT22;32647;49.382;7.078;2022-12-10T07:20:12;0.00;99.90
46900;DHT22;32647;49.382;7.078;2022-12-10T07:22:58;0.00;99.90
46900;DHT22;32647;49.382;7.078;2022-12-10T07:25:44;0.00;99.90
46900;DHT22;32647;49.382;7.078;2022-12-10T07:28:29;0.00;99.90
46900;DHT22;32647;49.382;7.078;2022-12-10T07:31:15;0.00;99.90
46900;DHT22;32647;49.382;7.078;2022-12-10T07:34:02;0.00;99.90
46900;DHT22;32647;49.382;7.078;2022-12-10T07:36:47;0.00;99.90
46900;DHT22;32647;49.382;7.078;2022-12-10T07:39:34;0.00;99.90
46900;DHT22;32647;49.382;7.078;2022-12-10T07:42:19;0.10;99.90
46900;DHT22;32647;49.382;7.078;2022-12-10T07:45:07;0.10;99.90
46900;DHT22;32647;49.382;7.078;2022-12-10T07:47:53;0.10;99.90
46900;DHT22;32647;49.382;7.078;2022-12-10T07:50:39;0.00;99.90
46900;DHT22;32647;49.382;7.078;2022-12-10T07:53:25;0.10;99.90
46900;DHT22;32647;49.382;7.078;2022-12-10T07:56:11;0.00;99.90
46900;DHT22;32647;49.382;7.078;2022-12-10T07:58:57;0.00;99.90
46900;DHT22;32647;49.382;7.078;2022-12-10T08:01:43;0.00;99.90
46900;DHT22;32647;49.382;7.078;2022-12-10T08:04:29;0.00;99.90
46900;DHT22;32647;49.382;7.078;2022-12-10T08:07:15;0.00;99.90
46900;DHT22;32647;49.382;7.078;2022-12-10T08:10:02;0.00;99.90
46900;DHT22;32647;49.382;7.078;2022-12-10T08:12:48;0.10;99.90
46900;DHT22;32647;49.382;7.078;2022-12-10T08:15:33;0.10;99.90
46900;DHT22;32647;49.382;7.078;2022-12-10T08:18:20;0.10;99.90
46900;DHT22;32647;49.382;7.078;2022-12-10T08:21:18;0.20;99.90
46900;DHT22;32647;49.382;7.078;2022-12-10T08:24:05;0.10;99.90
46900;DHT22;32647;49.382;7.078;2022-12-10T08:26:51;0.10;99.90
46900;DHT22;32647;49.382;7.078;2022-12-10T08:29:36;0.20;99.90
46900;DHT22;32647;49.382;7.078;2022-12-10T08:32:22;0.30;99.90
46900;DHT22;32647;49.382;7.078;2022-12-10T08:35:08;0.20;99.90
46900;DHT22;32647;49.382;7.078;2022-12-10T08:37:54;0.30;99.90
46900;DHT22;32647;49.382;7.078;2022-12-10T08:40:41;0.30;99.90
46900;DHT22;32647;49.382;7.078;2022-12-10T08:43:27;0.40;99.90
46900;DHT22;32647;49.382;7.078;2022-12-10T08:46:14;0.30;99.90
46900;DHT22;32647;49.382;7.078;2022-12-10T08:49:00;0.30;99.90
46900;DHT22;32647;49.382;7.078;2022-12-10T08:51:46;0.20;99.90
46900;DHT22;32647;49.382;7.078;2022-12-10T08:54:32;0.20;99.90
46900;DHT22;32647;49.382;7.078;2022-12-10T08:57:19;0.20;99.90
46900;DHT22;32647;49.382;7.078;2022-12-10T09:00:05;0.20;99.90
46900;DHT22;32647;49.382;7.078;2022-12-10T09:02:51;0.30;99.90
46900;DHT22;32647;49.382;7.078;2022-12-10T09:05:37;0.30;99.90
46900;DHT22;32647;49.382;7.078;2022-12-10T09:08:23;0.30;99.90
46900;DHT22;32647;49.382;7.078;2022-12-10T09:11:16;0.30;99.90
46900;DHT22;32647;49.382;7.078;2022-12-10T09:14:03;0.30;99.90
46900;DHT22;32647;49.382;7.078;2022-12-10T09:16:49;0.30;99.90
46900;DHT22;32647;49.382;7.078;2022-12-10T09:19:35;0.40;99.90
46900;DHT22;32647;49.382;7.078;2022-12-10T09:22:21;0.40;99.90
46900;DHT22;32647;49.382;7.078;2022-12-10T09:25:08;0.40;99.90
46900;DHT22;32647;49.382;7.078;2022-12-10T09:27:55;0.40;99.90
46900;DHT22;32647;49.382;7.078;2022-12-10T09:30:41;0.30;99.90
46900;DHT22;32647;49.382;7.078;2022-12-10T09:33:28;0.40;99.90
46900;DHT22;32647;49.382;7.078;2022-12-10T09:36:14;0.50;99.90
46900;DHT22;32647;49.382;7.078;2022-12-10T09:39:01;0.40;99.90
46900;DHT22;32647;49.382;7.078;2022-12-10T09:45:14;0.20;99.90
46900;DHT22;32647;49.382;7.078;2022-12-10T09:48:27;0.20;99.90
46900;DHT22;32647;49.382;7.078;2022-12-10T09:51:23;0.30;99.90
46900;DHT22;32647;49.382;7.078;2022-12-10T09:54:22;0.30;99.90
46900;DHT22;32647;49.382;7.078;2022-12-10T09:57:41;0.30;99.90
46900;DHT22;32647;49.382;7.078;2022-12-10T10:00:38;0.20;99.90
46900;DHT22;32647;49.382;7.078;2022-12-10T10:03:25;0.10;99.90
46900;DHT22;32647;49.382;7.078;2022-12-10T10:06:13;0.10;99.90
46900;DHT22;32647;49.382;7.078;2022-12-10T10:09:01;0.10;99.90
46900;DHT22;32647;49.382;7.078;2022-12-10T10:11:47;0.10;99.90
46900;DHT22;32647;49.382;7.078;2022-12-10T10:14:34;0.10;99.90
46900;DHT22;32647;49.382;7.078;2022-12-10T10:17:35;0.10;99.90
46900;DHT22;32647;49.382;7.078;2022-12-10T10:20:22;0.10;99.90
46900;DHT22;32647;49.382;7.078;2022-12-10T10:23:08;0.10;99.90
46900;DHT22;32647;49.382;7.078;2022-12-10T10:25:58;0.20;99.90
46900;DHT22;32647;49.382;7.078;2022-12-10T10:28:44;0.30;99.90
46900;DHT22;32647;49.382;7.078;2022-12-10T10:31:34;0.30;99.90
46900;DHT22;32647;49.382;7.078;2022-12-10T10:34:22;0.40;99.90
46900;DHT22;32647;49.382;7.078;2022-12-10T10:37:38;0.50;99.90
46900;DHT22;32647;49.382;7.078;2022-12-10T10:40:32;0.60;99.90
46900;DHT22;32647;49.382;7.078;2022-12-10T10:43:27;0.70;99.90
46900;DHT22;32647;49.382;7.078;2022-12-10T10:46:22;0.70;99.90
46900;DHT22;32647;49.382;7.078;2022-12-10T10:52:20;0.90;99.90
46900;DHT22;32647;49.382;7.078;2022-12-10T10:55:32;0.90;99.90
46900;DHT22;32647;49.382;7.078;2022-12-10T10:58:22;1.00;99.90
46900;DHT22;32647;49.382;7.078;2022-12-10T11:01:08;1.00;99.90
46900;DHT22;32647;49.382;7.078;2022-12-10T11:03:58;1.00;99.90
46900;DHT22;32647;49.382;7.078;2022-12-10T11:06:45;1.00;99.90
46900;DHT22;32647;49.382;7.078;2022-12-10T11:09:36;1.20;99.90
46900;DHT22;32647;49.382;7.078;2022-12-10T11:12:29;1.20;99.90
46900;DHT22;32647;49.382;7.078;2022-12-10T11:23:58;1.50;99.90
46900;DHT22;32647;49.382;7.078;2022-12-10T11:35:56;1.70;99.90
46900;DHT22;32647;49.382;7.078;2022-12-10T11:39:07;1.60;99.20
46900;DHT22;32647;49.382;7.078;2022-12-10T11:48:37;1.80;96.00
46900;DHT22;32647;49.382;7.078;2022-12-10T11:55:24;2.00;96.60
46900;DHT22;32647;49.382;7.078;2022-12-10T12:13:08;2.40;71.20
46900;DHT22;32647;49.382;7.078;2022-12-10T12:16:01;2.40;79.30
46900;DHT22;32647;49.382;7.078;2022-12-10T12:18:58;2.40;70.90
46900;DHT22;32647;49.382;7.078;2022-12-10T12:21:49;2.30;94.60
46900;DHT22;32647;49.382;7.078;2022-12-10T12:24:38;2.20;66.50
46900;DHT22;32647;49.382;7.078;2022-12-10T12:27:33;2.40;64.80
46900;DHT22;32647;49.382;7.078;2022-12-10T12:30:22;2.40;52.60
46900;DHT22;32647;49.382;7.078;2022-12-10T12:33:13;2.40;52.70
46900;DHT22;32647;49.382;7.078;2022-12-10T12:36:10;2.50;67.20
46900;DHT22;32647;49.382;7.078;2022-12-10T12:39:38;2.50;53.30
46900;DHT22;32647;49.382;7.078;2022-12-10T12:43:03;2.30;88.10
46900;DHT22;32647;49.382;7.078;2022-12-10T12:45:49;2.40;88.80
46900;DHT22;32647;49.382;7.078;2022-12-10T12:51:34;2.80;54.70
46900;DHT22;32647;49.382;7.078;2022-12-10T12:54:24;2.90;65.70
46900;DHT22;32647;49.382;7.078;2022-12-10T13:00:17;3.00;53.80
46900;DHT22;32647;49.382;7.078;2022-12-10T13:03:29;3.00;46.60
46900;DHT22;32647;49.382;7.078;2022-12-10T13:06:21;3.10;25.20
46900;DHT22;32647;49.382;7.078;2022-12-10T13:09:27;3.20;43.60
46900;DHT22;32647;49.382;7.078;2022-12-10T13:12:30;3.10;21.00
46900;DHT22;32647;49.382;7.078;2022-12-10T13:15:18;3.00;4.00
46900;DHT22;32647;49.382;7.078;2022-12-10T13:21:26;3.10;1.00
46900;DHT22;32647;49.382;7.078;2022-12-10T13:24:12;3.10;12.40
46900;DHT22;32647;49.382;7.078;2022-12-10T13:32:47;3.20;1.00
46900;DHT22;32647;49.382;7.078;2022-12-10T13:36:03;3.20;1.00
46900;DHT22;32647;49.382;7.078;2022-12-10T13:48:25;3.10;1.00
46900;DHT22;32647;49.382;7.078;2022-12-10T14:00:28;3.10;99.90
46900;DHT22;32647;49.382;7.078;2022-12-10T14:12:05;2.90;99.90
46900;DHT22;32647;49.382;7.078;2022-12-10T14:15:04;2.90;99.90
46900;DHT22;32647;49.382;7.078;2022-12-10T14:17:56;2.90;99.90
46900;DHT22;32647;49.382;7.078;2022-12-10T14:20:47;2.90;99.90
46900;DHT22;32647;49.382;7.078;2022-12-10T14:23:34;2.90;1.00
46900;DHT22;32647;49.382;7.078;2022-12-10T14:26:32;2.80;1.00
46900;DHT22;32647;49.382;7.078;2022-12-10T14:29:20;2.90;1.00
46900;DHT22;32647;49.382;7.078;2022-12-10T14:32:16;2.90;1.00
46900;DHT22;32647;49.382;7.078;2022-12-10T14:35:05;2.90;21.80
46900;DHT22;32647;49.382;7.078;2022-12-10T14:37:55;2.80;1.00
46900;DHT22;32647;49.382;7.078;2022-12-10T14:40:42;2.80;99.90
46900;DHT22;32647;49.382;7.078;2022-12-10T14:43:36;2.80;99.90
46900;DHT22;32647;49.382;7.078;2022-12-10T14:46:25;2.70;1.00
46900;DHT22;32647;49.382;7.078;2022-12-10T14:49:25;2.60;99.90
46900;DHT22;32647;49.382;7.078;2022-12-10T14:52:30;2.50;99.90
46900;DHT22;32647;49.382;7.078;2022-12-10T14:55:22;2.50;99.90
46900;DHT22;32647;49.382;7.078;2022-12-10T14:58:18;2.50;99.90
46900;DHT22;32647;49.382;7.078;2022-12-10T15:01:09;2.50;99.90
46900;DHT22;32647;49.382;7.078;2022-12-10T15:04:00;2.40;1.00
46900;DHT22;32647;49.382;7.078;2022-12-10T15:06:47;2.30;99.90
46900;DHT22;32647;49.382;7.078;2022-12-10T15:09:33;2.20;22.50
46900;DHT22;32647;49.382;7.078;2022-12-10T15:12:47;2.00;99.90
46900;DHT22;32647;49.382;7.078;2022-12-10T15:18:26;1.80;1.00
46900;DHT22;32647;49.382;7.078;2022-12-10T15:21:20;1.50;1.00
46900;DHT22;32647;49.382;7.078;2022-12-10T15:24:35;1.20;9.90
46900;DHT22;32647;49.382;7.078;2022-12-10T15:27:23;1.00;60.70
46900;DHT22;32647;49.382;7.078;2022-12-10T15:30:37;0.60;86.10
46900;DHT22;32647;49.382;7.078;2022-12-10T15:33:37;0.50;96.20
46900;DHT22;32647;49.382;7.078;2022-12-10T15:36:34;0.30;98.30
46900;DHT22;32647;49.382;7.078;2022-12-10T15:39:27;0.10;99.90
46900;DHT22;32647;49.382;7.078;2022-12-10T15:42:37;0.00;99.90
46900;DHT22;32647;49.382;7.078;2022-12-10T15:45:26;-0.10;99.90
46900;DHT22;32647;49.382;7.078;2022-12-10T15:48:12;-0.20;99.90
46900;DHT22;32647;49.382;7.078;2022-12-10T15:50:58;-0.30;99.90
46900;DHT22;32647;49.382;7.078;2022-12-10T15:53:44;-0.40;99.90
46900;DHT22;32647;49.382;7.078;2022-12-10T15:56:30;-0.40;99.90
46900;DHT22;32647;49.382;7.078;2022-12-10T15:59:16;-0.50;99.90
46900;DHT22;32647;49.382;7.078;2022-12-10T16:02:02;-0.70;99.90
46900;DHT22;32647;49.382;7.078;2022-12-10T16:04:49;-0.50;99.90
46900;DHT22;32647;49.382;7.078;2022-12-10T16:07:35;-0.50;99.90
46900;DHT22;32647;49.382;7.078;2022-12-10T16:10:23;-0.80;99.90
46900;DHT22;32647;49.382;7.078;2022-12-10T16:15:54;-0.90;99.90
46900;DHT22;32647;49.382;7.078;2022-12-10T16:18:42;-0.80;99.90
46900;DHT22;32647;49.382;7.078;2022-12-10T16:21:28;-0.90;99.90
46900;DHT22;32647;49.382;7.078;2022-12-10T16:24:13;-0.90;99.90
46900;DHT22;32647;49.382;7.078;2022-12-10T16:27:00;-1.00;99.90
46900;DHT22;32647;49.382;7.078;2022-12-10T16:29:46;-1.10;99.90
46900;DHT22;32647;49.382;7.078;2022-12-10T16:32:31;-1.20;99.90
46900;DHT22;32647;49.382;7.078;2022-12-10T16:35:18;-1.20;99.90
46900;DHT22;32647;49.382;7.078;2022-12-10T16:38:04;-1.30;99.90
46900;DHT22;32647;49.382;7.078;2022-12-10T16:40:50;-1.20;99.90
46900;DHT22;32647;49.382;7.078;2022-12-10T16:43:36;-1.20;99.90
46900;DHT22;32647;49.382;7.078;2022-12-10T16:46:22;-1.30;99.90
46900;DHT22;32647;49.382;7.078;2022-12-10T16:49:08;-1.40;99.90
46900;DHT22;32647;49.382;7.078;2022-12-10T16:51:54;-1.40;99.90
46900;DHT22;32647;49.382;7.078;2022-12-10T16:54:40;-1.30;99.90
46900;DHT22;32647;49.382;7.078;2022-12-10T16:57:26;-1.50;99.90
46900;DHT22;32647;49.382;7.078;2022-12-10T17:00:14;-1.50;99.90
46900;DHT22;32647;49.382;7.078;2022-12-10T17:03:00;-1.50;99.90
46900;DHT22;32647;49.382;7.078;2022-12-10T17:05:54;-1.50;99.90
46900;DHT22;32647;49.382;7.078;2022-12-10T17:08:41;-1.70;99.90
46900;DHT22;32647;49.382;7.078;2022-12-10T17:11:33;-1.70;99.90
46900;DHT22;32647;49.382;7.078;2022-12-10T17:14:32;-1.80;99.90
46900;DHT22;32647;49.382;7.078;2022-12-10T17:17:19;-2.00;99.90
46900;DHT22;32647;49.382;7.078;2022-12-10T17:20:15;-2.00;99.90
46900;DHT22;32647;49.382;7.078;2022-12-10T17:23:02;-2.00;99.90
46900;DHT22;32647;49.382;7.078;2022-12-10T17:25:48;-1.90;99.90
46900;DHT22;32647;49.382;7.078;2022-12-10T17:28:34;-2.00;99.90
46900;DHT22;32647;49.382;7.078;2022-12-10T17:31:20;-2.00;99.90
46900;DHT22;32647;49.382;7.078;2022-12-10T17:34:06;-2.00;99.90
46900;DHT22;32647;49.382;7.078;2022-12-10T17:36:52;-2.00;99.90
46900;DHT22;32647;49.382;7.078;2022-12-10T17:39:38;-2.10;99.90
46900;DHT22;32647;49.382;7.078;2022-12-10T17:42:24;-2.20;99.90
46900;DHT22;32647;49.382;7.078;2022-12-10T17:45:16;-2.20;99.90
46900;DHT22;32647;49.382;7.078;2022-12-10T17:48:03;-2.30;99.90
46900;DHT22;32647;49.382;7.078;2022-12-10T17:50:50;-2.40;99.90
46900;DHT22;32647;49.382;7.078;2022-12-10T17:53:36;-2.50;99.90
46900;DHT22;32647;49.382;7.078;2022-12-10T17:56:24;-2.40;99.90
46900;DHT22;32647;49.382;7.078;2022-12-10T17:59:14;-2.40;99.90
46900;DHT22;32647;49.382;7.078;2022-12-10T18:02:00;-2.30;99.90
46900;DHT22;32647;49.382;7.078;2022-12-10T18:04:47;-2.30;99.90
46900;DHT22;32647;49.382;7.078;2022-12-10T18:07:33;-2.50;99.90
46900;DHT22;32647;49.382;7.078;2022-12-10T18:10:21;-2.50;99.90
46900;DHT22;32647;49.382;7.078;2022-12-10T18:13:07;-2.70;99.90
46900;DHT22;32647;49.382;7.078;2022-12-10T18:15:53;-2.70;99.90
46900;DHT22;32647;49.382;7.078;2022-12-10T18:18:39;-2.70;99.90
46900;DHT22;32647;49.382;7.078;2022-12-10T18:21:26;-2.70;99.90
46900;DHT22;32647;49.382;7.078;2022-12-10T18:24:12;-2.70;99.90
46900;DHT22;32647;49.382;7.078;2022-12-10T18:27:00;-2.70;99.90
46900;DHT22;32647;49.382;7.078;2022-12-10T18:29:47;-2.70;99.90
46900;DHT22;32647;49.382;7.078;2022-12-10T18:32:33;-2.70;99.90
46900;DHT22;32647;49.382;7.078;2022-12-10T18:35:20;-2.80;99.90
46900;DHT22;32647;49.382;7.078;2022-12-10T18:38:06;-2.90;99.90
46900;DHT22;32647;49.382;7.078;2022-12-10T18:40:52;-3.00;99.90
46900;DHT22;32647;49.382;7.078;2022-12-10T18:43:38;-2.90;99.90
46900;DHT22;32647;49.382;7.078;2022-12-10T18:46:26;-2.90;99.90
46900;DHT22;32647;49.382;7.078;2022-12-10T18:49:16;-3.00;99.90
46900;DHT22;32647;49.382;7.078;2022-12-10T18:52:03;-3.00;99.90
46900;DHT22;32647;49.382;7.078;2022-12-10T18:54:50;-3.10;99.90
46900;DHT22;32647;49.382;7.078;2022-12-10T18:57:36;-3.10;99.90
46900;DHT22;32647;49.382;7.078;2022-12-10T19:00:24;-3.10;99.90
46900;DHT22;32647;49.382;7.078;2022-12-10T19:03:11;-3.10;99.90
46900;DHT22;32647;49.382;7.078;2022-12-10T19:05:57;-3.10;99.90
46900;DHT22;32647;49.382;7.078;2022-12-10T19:08:44;-3.10;99.90
46900;DHT22;32647;49.382;7.078;2022-12-10T19:11:30;-3.10;99.90
46900;DHT22;32647;49.382;7.078;2022-12-10T19:14:18;-3.20;99.90
46900;DHT22;32647;49.382;7.078;2022-12-10T19:17:04;-3.30;99.90
46900;DHT22;32647;49.382;7.078;2022-12-10T19:19:50;-3.20;99.90
46900;DHT22;32647;49.382;7.078;2022-12-10T19:22:36;-3.30;99.90
46900;DHT22;32647;49.382;7.078;2022-12-10T19:25:21;-3.30;99.90
46900;DHT22;32647;49.382;7.078;2022-12-10T19:28:08;-3.30;99.90
46900;DHT22;32647;49.382;7.078;2022-12-10T19:30:55;-3.40;99.90
46900;DHT22;32647;49.382;7.078;2022-12-10T19:33:41;-3.40;99.90
46900;DHT22;32647;49.382;7.078;2022-12-10T19:36:27;-3.40;99.90
46900;DHT22;32647;49.382;7.078;2022-12-10T19:39:22;-3.40;99.90
46900;DHT22;32647;49.382;7.078;2022-12-10T19:42:08;-3.30;99.90
46900;DHT22;32647;49.382;7.078;2022-12-10T19:44:54;-3.40;99.90
46900;DHT22;32647;49.382;7.078;2022-12-10T19:47:40;-3.40;99.90
46900;DHT22;32647;49.382;7.078;2022-12-10T19:50:29;-3.40;99.90
46900;DHT22;32647;49.382;7.078;2022-12-10T19:53:17;-3.60;99.90
46900;DHT22;32647;49.382;7.078;2022-12-10T19:56:31;-3.60;99.90
46900;DHT22;32647;49.382;7.078;2022-12-10T19:59:18;-3.70;99.90
46900;DHT22;32647;49.382;7.078;2022-12-10T20:02:04;-3.70;99.90